sensor_id;sensor_type;location;lat;lon;timestamp;P1;durP1;ratioP1;P2;durP2;ratioP2
46597;SDS011;32318;48.858;8.252;2023-08-30T00:04:41;4.90;;;2.13;;
46597;SDS011;32318;48.858;8.252;2023-08-30T00:12:42;9.13;;;2.00;;
46597;SDS011;32318;48.858;8.252;2023-08-30T00:20:42;5.25;;;1.88;;
46597;SDS011;32318;48.858;8.252;2023-08-30T00:28:42;3.78;;;1.85;;
46597;SDS011;32318;48.858;8.252;2023-08-30T00:36:43;8.65;;;1.80;;
46597;SDS011;32318;48.858;8.252;2023-08-30T00:44:43;5.75;;;1.50;;
46597;SDS011;32318;48.858;8.252;2023-08-30T00:52:43;2.60;;;1.63;;
46597;SDS011;32318;48.858;8.252;2023-08-30T01:00:44;7.53;;;1.50;;
46597;SDS011;32318;48.858;8.252;2023-08-30T01:08:44;3.30;;;1.50;;
46597;SDS011;32318;48.858;8.252;2023-08-30T01:16:45;7.05;;;1.70;;
46597;SDS011;32318;48.858;8.252;2023-08-30T01:24:59;5.32;;;1.70;;
46597;SDS011;32318;48.858;8.252;2023-08-30T01:33:09;3.20;;;1.67;;
46597;SDS011;32318;48.858;8.252;2023-08-30T01:41:11;2.85;;;1.63;;
46597;SDS011;32318;48.858;8.252;2023-08-30T01:49:11;3.28;;;2.08;;
46597;SDS011;32318;48.858;8.252;2023-08-30T01:57:12;2.85;;;1.50;;
46597;SDS011;32318;48.858;8.252;2023-08-30T02:05:13;5.95;;;1.80;;
46597;SDS011;32318;48.858;8.252;2023-08-30T02:13:13;3.00;;;1.80;;
46597;SDS011;32318;48.858;8.252;2023-08-30T02:21:14;11.52;;;2.50;;
46597;SDS011;32318;48.858;8.252;2023-08-30T02:29:15;8.90;;;2.20;;
46597;SDS011;32318;48.858;8.252;2023-08-30T02:37:15;5.72;;;1.80;;
46597;SDS011;32318;48.858;8.252;2023-08-30T02:45:15;4.15;;;2.30;;
46597;SDS011;32318;48.858;8.252;2023-08-30T02:53:15;7.35;;;2.70;;
46597;SDS011;32318;48.858;8.252;2023-08-30T03:01:16;3.90;;;2.30;;
46597;SDS011;32318;48.858;8.252;2023-08-30T03:09:16;6.32;;;2.17;;
46597;SDS011;32318;48.858;8.252;2023-08-30T03:17:16;4.32;;;2.15;;
46597;SDS011;32318;48.858;8.252;2023-08-30T03:25:17;3.78;;;1.75;;
46597;SDS011;32318;48.858;8.252;2023-08-30T03:33:17;3.50;;;1.98;;
46597;SDS011;32318;48.858;8.252;2023-08-30T03:41:17;3.25;;;2.08;;
46597;SDS011;32318;48.858;8.252;2023-08-30T03:49:18;3.88;;;2.10;;
46597;SDS011;32318;48.858;8.252;2023-08-30T03:57:18;7.25;;;1.88;;
46597;SDS011;32318;48.858;8.252;2023-08-30T04:05:18;3.90;;;1.98;;
46597;SDS011;32318;48.858;8.252;2023-08-30T04:13:19;2.90;;;1.70;;
46597;SDS011;32318;48.858;8.252;2023-08-30T04:21:19;3.90;;;2.03;;
46597;SDS011;32318;48.858;8.252;2023-08-30T04:29:20;5.82;;;1.88;;
46597;SDS011;32318;48.858;8.252;2023-08-30T04:46:02;6.90;;;2.28;;
46597;SDS011;32318;48.858;8.252;2023-08-30T04:54:03;3.35;;;1.75;;
46597;SDS011;32318;48.858;8.252;2023-08-30T05:02:03;6.43;;;2.30;;
46597;SDS011;32318;48.858;8.252;2023-08-30T05:10:04;4.47;;;1.70;;
46597;SDS011;32318;48.858;8.252;2023-08-30T05:18:06;6.68;;;1.90;;
46597;SDS011;32318;48.858;8.252;2023-08-30T05:26:06;8.32;;;2.15;;
46597;SDS011;32318;48.858;8.252;2023-08-30T05:34:06;8.50;;;2.22;;
46597;SDS011;32318;48.858;8.252;2023-08-30T05:42:07;7.13;;;2.20;;
46597;SDS011;32318;48.858;8.252;2023-08-30T05:50:07;4.30;;;2.03;;
46597;SDS011;32318;48.858;8.252;2023-08-30T05:58:08;8.30;;;2.00;;
46597;SDS011;32318;48.858;8.252;2023-08-30T06:06:08;3.53;;;2.05;;
46597;SDS011;32318;48.858;8.252;2023-08-30T06:14:09;8.02;;;2.50;;
46597;SDS011;32318;48.858;8.252;2023-08-30T06:22:09;6.40;;;2.50;;
46597;SDS011;32318;48.858;8.252;2023-08-30T06:30:10;5.72;;;2.20;;
46597;SDS011;32318;48.858;8.252;2023-08-30T06:38:11;4.45;;;2.30;;
46597;SDS011;32318;48.858;8.252;2023-08-30T06:46:11;13.60;;;2.30;;
46597;SDS011;32318;48.858;8.252;2023-08-30T06:54:11;7.57;;;2.30;;
46597;SDS011;32318;48.858;8.252;2023-08-30T07:02:11;4.00;;;2.60;;
46597;SDS011;32318;48.858;8.252;2023-08-30T07:10:13;11.23;;;2.70;;
46597;SDS011;32318;48.858;8.252;2023-08-30T07:18:13;9.82;;;2.80;;
46597;SDS011;32318;48.858;8.252;2023-08-30T07:26:14;9.63;;;3.20;;
46597;SDS011;32318;48.858;8.252;2023-08-30T07:34:14;4.75;;;2.90;;
46597;SDS011;32318;48.858;8.252;2023-08-30T07:42:14;7.10;;;2.70;;
46597;SDS011;32318;48.858;8.252;2023-08-30T07:50:15;6.88;;;3.17;;
46597;SDS011;32318;48.858;8.252;2023-08-30T07:58:16;6.43;;;3.20;;
46597;SDS011;32318;48.858;8.252;2023-08-30T08:06:17;4.30;;;2.67;;
46597;SDS011;32318;48.858;8.252;2023-08-30T08:14:17;3.95;;;2.78;;
46597;SDS011;32318;48.858;8.252;2023-08-30T08:22:18;8.82;;;2.72;;
46597;SDS011;32318;48.858;8.252;2023-08-30T08:30:18;4.93;;;2.55;;
46597;SDS011;32318;48.858;8.252;2023-08-30T08:38:20;3.85;;;2.75;;
46597;SDS011;32318;48.858;8.252;2023-08-30T08:46:20;3.90;;;2.90;;
46597;SDS011;32318;48.858;8.252;2023-08-30T08:54:21;3.45;;;2.40;;
46597;SDS011;32318;48.858;8.252;2023-08-30T09:02:22;6.55;;;2.75;;
46597;SDS011;32318;48.858;8.252;2023-08-30T09:10:23;5.50;;;2.90;;
46597;SDS011;32318;48.858;8.252;2023-08-30T09:18:23;4.75;;;3.00;;
46597;SDS011;32318;48.858;8.252;2023-08-30T09:26:27;5.38;;;3.10;;
46597;SDS011;32318;48.858;8.252;2023-08-30T09:34:31;6.30;;;3.22;;
46597;SDS011;32318;48.858;8.252;2023-08-30T09:42:31;8.90;;;3.25;;
46597;SDS011;32318;48.858;8.252;2023-08-30T09:50:33;8.75;;;2.60;;
46597;SDS011;32318;48.858;8.252;2023-08-30T09:58:37;5.30;;;2.70;;
46597;SDS011;32318;48.858;8.252;2023-08-30T10:06:40;5.28;;;2.72;;
46597;SDS011;32318;48.858;8.252;2023-08-30T10:14:41;3.73;;;2.60;;
46597;SDS011;32318;48.858;8.252;2023-08-30T10:22:42;14.38;;;3.00;;
46597;SDS011;32318;48.858;8.252;2023-08-30T10:30:43;2.72;;;2.10;;
46597;SDS011;32318;48.858;8.252;2023-08-30T10:38:48;4.15;;;2.13;;
46597;SDS011;32318;48.858;8.252;2023-08-30T10:46:53;4.07;;;2.20;;
46597;SDS011;32318;48.858;8.252;2023-08-30T10:55:04;4.90;;;2.00;;
46597;SDS011;32318;48.858;8.252;2023-08-30T11:03:10;2.97;;;2.00;;
46597;SDS011;32318;48.858;8.252;2023-08-30T11:11:10;3.60;;;2.25;;
46597;SDS011;32318;48.858;8.252;2023-08-30T11:19:12;4.30;;;2.00;;
46597;SDS011;32318;48.858;8.252;2023-08-30T11:27:12;5.17;;;1.80;;
46597;SDS011;32318;48.858;8.252;2023-08-30T11:35:15;4.82;;;2.25;;
46597;SDS011;32318;48.858;8.252;2023-08-30T11:43:15;9.95;;;1.88;;
46597;SDS011;32318;48.858;8.252;2023-08-30T11:51:16;4.05;;;1.67;;
46597;SDS011;32318;48.858;8.252;2023-08-30T11:59:18;5.47;;;1.80;;
46597;SDS011;32318;48.858;8.252;2023-08-30T12:07:23;3.35;;;1.65;;
46597;SDS011;32318;48.858;8.252;2023-08-30T12:15:25;2.55;;;1.73;;
46597;SDS011;32318;48.858;8.252;2023-08-30T12:23:28;3.92;;;1.80;;
46597;SDS011;32318;48.858;8.252;2023-08-30T12:31:29;3.75;;;1.55;;
46597;SDS011;32318;48.858;8.252;2023-08-30T12:39:31;6.13;;;1.42;;
46597;SDS011;32318;48.858;8.252;2023-08-30T12:47:35;6.43;;;1.60;;
46597;SDS011;32318;48.858;8.252;2023-08-30T12:55:35;9.07;;;1.50;;
46597;SDS011;32318;48.858;8.252;2023-08-30T13:03:36;1.77;;;1.13;;
46597;SDS011;32318;48.858;8.252;2023-08-30T13:11:36;4.25;;;1.52;;
46597;SDS011;32318;48.858;8.252;2023-08-30T13:19:36;2.97;;;1.40;;
46597;SDS011;32318;48.858;8.252;2023-08-30T13:27:37;4.95;;;1.50;;
46597;SDS011;32318;48.858;8.252;2023-08-30T13:35:40;4.63;;;1.40;;
46597;SDS011;32318;48.858;8.252;2023-08-30T13:43:40;8.05;;;2.13;;
46597;SDS011;32318;48.858;8.252;2023-08-30T13:51:40;3.17;;;1.40;;
46597;SDS011;32318;48.858;8.252;2023-08-30T13:59:41;2.25;;;1.35;;
46597;SDS011;32318;48.858;8.252;2023-08-30T14:07:41;3.60;;;1.38;;
46597;SDS011;32318;48.858;8.252;2023-08-30T14:15:41;4.72;;;1.20;;
46597;SDS011;32318;48.858;8.252;2023-08-30T14:23:42;4.70;;;1.50;;
46597;SDS011;32318;48.858;8.252;2023-08-30T14:31:42;4.25;;;1.77;;
46597;SDS011;32318;48.858;8.252;2023-08-30T14:39:42;3.17;;;1.40;;
46597;SDS011;32318;48.858;8.252;2023-08-30T14:47:43;3.70;;;1.50;;
46597;SDS011;32318;48.858;8.252;2023-08-30T14:55:46;2.88;;;1.30;;
46597;SDS011;32318;48.858;8.252;2023-08-30T15:03:46;4.30;;;1.27;;
46597;SDS011;32318;48.858;8.252;2023-08-30T15:11:46;2.42;;;1.20;;
46597;SDS011;32318;48.858;8.252;2023-08-30T15:19:47;2.78;;;1.52;;
46597;SDS011;32318;48.858;8.252;2023-08-30T15:27:47;4.53;;;1.70;;
46597;SDS011;32318;48.858;8.252;2023-08-30T15:35:47;5.78;;;1.67;;
46597;SDS011;32318;48.858;8.252;2023-08-30T15:43:48;2.93;;;1.60;;
46597;SDS011;32318;48.858;8.252;2023-08-30T15:51:48;2.90;;;1.55;;
46597;SDS011;32318;48.858;8.252;2023-08-30T15:59:48;3.53;;;1.60;;
46597;SDS011;32318;48.858;8.252;2023-08-30T16:07:48;5.07;;;1.42;;
46597;SDS011;32318;48.858;8.252;2023-08-30T16:15:49;4.20;;;1.75;;
46597;SDS011;32318;48.858;8.252;2023-08-30T16:23:49;4.72;;;1.70;;
46597;SDS011;32318;48.858;8.252;2023-08-30T16:31:49;5.43;;;1.90;;
46597;SDS011;32318;48.858;8.252;2023-08-30T16:39:53;4.93;;;2.20;;
46597;SDS011;32318;48.858;8.252;2023-08-30T16:47:53;6.65;;;2.08;;
46597;SDS011;32318;48.858;8.252;2023-08-30T16:55:53;4.28;;;2.33;;
46597;SDS011;32318;48.858;8.252;2023-08-30T17:03:54;4.40;;;2.10;;
46597;SDS011;32318;48.858;8.252;2023-08-30T17:11:54;7.93;;;2.85;;
46597;SDS011;32318;48.858;8.252;2023-08-30T17:19:54;4.78;;;2.50;;
46597;SDS011;32318;48.858;8.252;2023-08-30T17:27:54;11.05;;;2.80;;
46597;SDS011;32318;48.858;8.252;2023-08-30T17:35:55;6.70;;;2.35;;
46597;SDS011;32318;48.858;8.252;2023-08-30T17:43:55;6.32;;;2.10;;
46597;SDS011;32318;48.858;8.252;2023-08-30T17:51:55;5.90;;;2.30;;
46597;SDS011;32318;48.858;8.252;2023-08-30T17:59:56;4.30;;;2.00;;
46597;SDS011;32318;48.858;8.252;2023-08-30T18:07:56;5.65;;;2.25;;
46597;SDS011;32318;48.858;8.252;2023-08-30T18:16:31;5.93;;;2.58;;
46597;SDS011;32318;48.858;8.252;2023-08-30T18:24:32;4.47;;;2.60;;
46597;SDS011;32318;48.858;8.252;2023-08-30T18:32:32;7.40;;;2.50;;
46597;SDS011;32318;48.858;8.252;2023-08-30T18:40:34;8.25;;;2.25;;
46597;SDS011;32318;48.858;8.252;2023-08-30T18:48:34;5.43;;;1.83;;
46597;SDS011;32318;48.858;8.252;2023-08-30T18:56:34;6.60;;;1.67;;
46597;SDS011;32318;48.858;8.252;2023-08-30T19:04:35;6.65;;;1.67;;
46597;SDS011;32318;48.858;8.252;2023-08-30T19:12:35;5.90;;;1.70;;
46597;SDS011;32318;48.858;8.252;2023-08-30T19:20:35;4.22;;;1.63;;
46597;SDS011;32318;48.858;8.252;2023-08-30T19:28:36;4.75;;;1.90;;
46597;SDS011;32318;48.858;8.252;2023-08-30T19:36:36;5.13;;;2.03;;
46597;SDS011;32318;48.858;8.252;2023-08-30T19:44:37;7.73;;;2.40;;
46597;SDS011;32318;48.858;8.252;2023-08-30T19:52:37;8.65;;;2.58;;
46597;SDS011;32318;48.858;8.252;2023-08-30T20:00:37;4.75;;;1.70;;
46597;SDS011;32318;48.858;8.252;2023-08-30T20:08:38;7.63;;;2.03;;
46597;SDS011;32318;48.858;8.252;2023-08-30T20:16:38;6.30;;;1.83;;
46597;SDS011;32318;48.858;8.252;2023-08-30T20:24:38;4.38;;;1.98;;
46597;SDS011;32318;48.858;8.252;2023-08-30T20:32:39;5.93;;;2.08;;
46597;SDS011;32318;48.858;8.252;2023-08-30T20:40:40;4.15;;;1.70;;
46597;SDS011;32318;48.858;8.252;2023-08-30T20:48:43;4.10;;;1.30;;
46597;SDS011;32318;48.858;8.252;2023-08-30T20:56:44;6.75;;;2.03;;
46597;SDS011;32318;48.858;8.252;2023-08-30T21:04:46;4.75;;;1.85;;
46597;SDS011;32318;48.858;8.252;2023-08-30T21:12:46;2.95;;;1.30;;
46597;SDS011;32318;48.858;8.252;2023-08-30T21:20:47;6.47;;;1.23;;
46597;SDS011;32318;48.858;8.252;2023-08-30T21:28:47;2.25;;;1.13;;
46597;SDS011;32318;48.858;8.252;2023-08-30T21:36:50;2.60;;;1.30;;
46597;SDS011;32318;48.858;8.252;2023-08-30T21:44:50;4.55;;;1.40;;
46597;SDS011;32318;48.858;8.252;2023-08-30T21:52:51;4.32;;;1.10;;
46597;SDS011;32318;48.858;8.252;2023-08-30T22:00:51;2.83;;;1.30;;
46597;SDS011;32318;48.858;8.252;2023-08-30T22:08:52;2.75;;;1.27;;
46597;SDS011;32318;48.858;8.252;2023-08-30T22:16:52;4.30;;;1.30;;
46597;SDS011;32318;48.858;8.252;2023-08-30T22:24:54;5.65;;;1.52;;
46597;SDS011;32318;48.858;8.252;2023-08-30T22:32:54;4.97;;;1.20;;
46597;SDS011;32318;48.858;8.252;2023-08-30T22:40:55;5.25;;;1.80;;
46597;SDS011;32318;48.858;8.252;2023-08-30T22:48:56;5.07;;;1.37;;
46597;SDS011;32318;48.858;8.252;2023-08-30T22:56:57;4.65;;;1.70;;
46597;SDS011;32318;48.858;8.252;2023-08-30T23:04:57;3.97;;;1.67;;
46597;SDS011;32318;48.858;8.252;2023-08-30T23:12:58;3.65;;;1.20;;
46597;SDS011;32318;48.858;8.252;2023-08-30T23:20:58;4.93;;;1.58;;
46597;SDS011;32318;48.858;8.252;2023-08-30T23:28:59;4.82;;;1.52;;
46597;SDS011;32318;48.858;8.252;2023-08-30T23:36:59;4.22;;;1.50;;
46597;SDS011;32318;48.858;8.252;2023-08-30T23:45:17;4.25;;;1.92;;
46597;SDS011;32318;48.858;8.252;2023-08-30T23:53:19;4.63;;;1.63;;
